Time,TemperatureF,DewpointF,PressureIn,WindDirection,WindDirectionDegrees,WindSpeedMPH,WindSpeedGustMPH,Humidity,HourlyPrecipIn,Conditions,Clouds,dailyrainin,SolarRadiationWatts/m^2,SoftwareType,DateUTC
2013-07-27 00:02:00,71.0,69.0,30.08,NW,311,0.0,0.0,95,0.00,,,0.00,0.000000,,2013-07-27 04:02:00,
2013-07-27 00:12:00,71.0,69.0,30.08,NW,311,0.0,0.0,95,0.00,,,0.00,0.000000,,2013-07-27 04:12:00,
2013-07-27 00:22:00,71.0,69.0,30.08,NW,311,0.0,0.0,95,0.00,,,0.00,0.000000,,2013-07-27 04:22:00,
2013-07-27 00:32:00,71.0,69.0,30.08,NW,311,0.0,0.0,95,0.00,,,0.00,0.000000,,2013-07-27 04:32:00,
2013-07-27 00:53:00,71.0,70.0,30.08,NW,311,0.0,0.0,96,0.00,,,0.00,0.000000,,2013-07-27 04:53:00,
2013-07-27 01:02:00,71.0,70.0,30.08,NW,311,0.0,0.0,96,0.00,,,0.00,0.000000,,2013-07-27 05:02:00,
2013-07-27 01:12:00,71.0,70.0,30.08,NW,311,0.0,0.0,96,0.00,,,0.00,0.000000,,2013-07-27 05:12:00,
2013-07-27 01:32:00,70.0,69.0,30.08,NW,310,0.0,0.0,96,0.00,,,0.00,0.000000,,2013-07-27 05:32:00,
2013-07-27 01:43:00,70.0,69.0,30.08,NW,310,0.0,0.0,96,0.00,,,0.00,0.000000,,2013-07-27 05:43:00,
2013-07-27 01:52:00,70.0,69.0,30.08,NW,311,0.0,0.0,97,0.00,,,0.00,0.000000,,2013-07-27 05:52:00,
2013-07-27 02:02:00,70.0,69.0,30.08,NW,311,0.0,0.0,97,0.00,,,0.00,0.000000,,2013-07-27 06:02:00,
2013-07-27 02:12:00,70.0,69.0,30.08,NW,311,0.0,0.0,97,0.00,,,0.00,0.000000,,2013-07-27 06:12:00,
2013-07-27 02:33:00,70.0,69.0,30.06,NW,310,0.0,0.0,97,0.00,,,0.00,0.000000,,2013-07-27 06:33:00,
2013-07-27 02:43:00,70.0,69.0,30.06,NW,310,0.0,0.0,97,0.00,,,0.00,0.000000,,2013-07-27 06:43:00,
2013-07-27 02:52:00,70.0,69.0,30.05,NW,311,0.0,0.0,97,0.00,,,0.00,0.000000,,2013-07-27 06:52:00,
2013-07-27 03:02:00,70.0,69.0,30.05,NW,311,0.0,0.0,97,0.00,,,0.00,0.000000,,2013-07-27 07:02:00,
2013-07-27 03:12:00,70.0,69.0,30.05,NW,311,0.0,0.0,97,0.00,,,0.00,0.000000,,2013-07-27 07:12:00,
2013-07-27 03:22:00,70.0,69.0,30.04,NW,311,0.0,0.0,97,0.00,,,0.00,0.000000,,2013-07-27 07:22:00,
2013-07-27 03:33:00,70.0,69.0,30.04,NW,311,0.0,0.0,97,0.00,,,0.00,0.000000,,2013-07-27 07:33:00,
2013-07-27 03:44:00,70.0,69.0,30.04,NW,311,0.0,0.0,97,0.00,,,0.00,0.000000,,2013-07-27 07:44:00,
2013-07-27 03:52:00,70.0,69.0,30.05,NW,311,0.0,0.0,97,0.00,,,0.00,0.000000,,2013-07-27 07:52:00,
2013-07-27 04:02:00,70.0,69.0,30.05,NW,311,0.0,0.0,97,0.00,,,0.00,0.000000,,2013-07-27 08:02:00,
2013-07-27 04:12:00,70.0,69.0,30.05,NW,311,0.0,0.0,97,0.00,,,0.00,0.000000,,2013-07-27 08:12:00,
2013-07-27 04:22:00,70.0,69.0,30.04,NW,311,0.0,0.0,97,0.00,,,0.00,0.000000,,2013-07-27 08:22:00,
2013-07-27 04:32:00,70.0,69.0,30.04,NW,311,0.0,0.0,97,0.00,,,0.00,0.000000,,2013-07-27 08:32:00,
2013-07-27 04:43:00,70.0,69.0,30.04,NW,311,0.0,0.0,97,0.00,,,0.00,0.000000,,2013-07-27 08:43:00,
2013-07-27 04:53:00,70.0,69.0,30.04,NW,310,0.0,0.0,97,0.00,,,0.00,0.000000,,2013-07-27 08:53:00,
2013-07-27 05:02:00,70.0,69.0,30.04,NW,310,0.0,0.0,97,0.00,,,0.00,0.000000,,2013-07-27 09:02:00,
2013-07-27 05:12:00,70.0,69.0,30.04,NW,310,0.0,0.0,97,0.00,,,0.00,0.000000,,2013-07-27 09:12:00,
2013-07-27 05:22:00,69.0,68.0,30.04,NW,311,0.0,0.0,98,0.00,,,0.00,0.000000,,2013-07-27 09:22:00,
2013-07-27 05:33:00,69.0,68.0,30.04,NW,311,0.0,0.0,98,0.00,,,0.00,0.000000,,2013-07-27 09:33:00,
2013-07-27 05:44:00,69.0,68.0,30.04,NW,311,0.0,0.0,98,0.00,,,0.00,0.000000,,2013-07-27 09:44:00,
2013-07-27 05:52:00,69.0,68.0,30.03,NW,311,0.0,0.0,98,0.00,,,0.00,0.000000,,2013-07-27 09:52:00,
2013-07-27 06:02:00,69.0,68.0,30.03,NW,311,0.0,0.0,98,0.00,,,0.00,0.000000,,2013-07-27 10:02:00,
2013-07-27 06:12:00,69.0,68.0,30.03,NW,311,0.0,0.0,98,0.00,,,0.00,0.000000,,2013-07-27 10:12:00,
2013-07-27 06:32:00,69.0,68.0,30.04,NW,311,0.0,0.0,98,0.00,,,0.00,0.000000,,2013-07-27 10:32:00,
2013-07-27 06:44:00,69.0,68.0,30.04,NW,311,0.0,0.0,98,0.00,,,0.00,0.000000,,2013-07-27 10:44:00,
2013-07-27 06:52:00,69.0,68.0,30.04,NW,310,0.0,0.0,98,0.00,,,0.00,0.000000,,2013-07-27 10:52:00,
2013-07-27 07:02:00,69.0,68.0,30.04,NW,310,0.0,0.0,98,0.00,,,0.00,0.000000,,2013-07-27 11:02:00,
2013-07-27 07:12:00,69.0,68.0,30.04,NW,310,0.0,0.0,98,0.00,,,0.00,0.000000,,2013-07-27 11:12:00,
2013-07-27 07:22:00,69.0,68.0,30.05,NW,311,0.0,0.0,98,0.00,,,0.00,9.000000,,2013-07-27 11:22:00,
2013-07-27 07:32:00,69.0,68.0,30.05,NW,311,0.0,0.0,98,0.00,,,0.00,9.000000,,2013-07-27 11:32:00,
2013-07-27 07:44:00,69.0,68.0,30.05,NW,311,0.0,0.0,98,0.00,,,0.00,9.000000,,2013-07-27 11:44:00,
2013-07-27 07:53:00,69.0,68.0,30.05,NW,311,0.0,0.0,98,0.00,,,0.00,30.000000,,2013-07-27 11:53:00,
2013-07-27 08:03:00,69.0,68.0,30.05,NW,311,0.0,0.0,98,0.00,,,0.00,30.000000,,2013-07-27 12:03:00,
2013-07-27 08:12:00,69.0,68.0,30.05,NW,311,0.0,0.0,98,0.00,,,0.00,30.000000,,2013-07-27 12:12:00,
2013-07-27 08:22:00,70.0,70.0,30.05,NW,310,0.0,0.0,99,0.00,,,0.00,69.000000,,2013-07-27 12:22:00,
2013-07-27 08:33:00,70.0,70.0,30.05,NW,310,0.0,0.0,99,0.00,,,0.00,69.000000,,2013-07-27 12:33:00,
2013-07-27 08:43:00,70.0,70.0,30.05,NW,310,0.0,0.0,99,0.00,,,0.00,69.000000,,2013-07-27 12:43:00,
2013-07-27 09:02:00,71.0,71.0,30.06,NW,311,0.0,0.0,99,0.00,,,0.00,49.000000,,2013-07-27 13:02:00,
2013-07-27 09:12:00,71.0,71.0,30.06,NW,311,0.0,0.0,99,0.00,,,0.00,49.000000,,2013-07-27 13:12:00,
2013-07-27 09:32:00,71.0,71.0,30.06,NW,310,0.0,1.0,99,0.00,,,0.00,84.000000,,2013-07-27 13:32:00,
2013-07-27 09:44:00,71.0,71.0,30.06,NW,310,0.0,1.0,99,0.00,,,0.00,84.000000,,2013-07-27 13:44:00,
2013-07-27 09:53:00,72.0,71.0,30.06,NW,311,0.0,0.0,98,0.00,,,0.00,102.000000,,2013-07-27 13:53:00,
2013-07-27 10:02:00,72.0,71.0,30.06,NW,311,0.0,0.0,98,0.00,,,0.00,102.000000,,2013-07-27 14:02:00,
2013-07-27 10:12:00,72.0,71.0,30.06,NW,311,0.0,0.0,98,0.00,,,0.00,102.000000,,2013-07-27 14:12:00,
2013-07-27 10:32:00,73.0,71.0,30.06,NW,311,0.0,1.0,95,0.00,,,0.00,174.000000,,2013-07-27 14:32:00,
2013-07-27 10:44:00,73.0,71.0,30.06,NW,311,0.0,1.0,95,0.00,,,0.00,174.000000,,2013-07-27 14:44:00,
2013-07-27 10:54:00,74.0,72.0,30.06,NW,311,0.0,0.0,92,0.00,,,0.00,132.000000,,2013-07-27 14:54:00,
2013-07-27 11:02:00,74.0,72.0,30.06,NW,311,0.0,0.0,92,0.00,,,0.00,132.000000,,2013-07-27 15:02:00,
2013-07-27 11:12:00,74.0,72.0,30.06,NW,311,0.0,0.0,92,0.00,,,0.00,132.000000,,2013-07-27 15:12:00,
2013-07-27 11:22:00,75.0,72.0,30.06,NW,311,0.0,1.0,90,0.00,,,0.00,288.000000,,2013-07-27 15:22:00,
2013-07-27 11:33:00,75.0,72.0,30.06,NW,311,0.0,1.0,90,0.00,,,0.00,288.000000,,2013-07-27 15:33:00,
2013-07-27 11:44:00,75.0,72.0,30.06,NW,311,0.0,1.0,90,0.00,,,0.00,288.000000,,2013-07-27 15:44:00,
2013-07-27 11:53:00,77.0,73.0,30.06,NW,311,0.0,1.0,87,0.00,,,0.00,246.000000,,2013-07-27 15:53:00,
2013-07-27 12:02:00,77.0,73.0,30.06,NW,311,0.0,1.0,87,0.00,,,0.00,246.000000,,2013-07-27 16:02:00,
2013-07-27 12:12:00,77.0,73.0,30.06,NW,311,0.0,1.0,87,0.00,,,0.00,246.000000,,2013-07-27 16:12:00,
2013-07-27 12:23:00,77.0,72.0,30.06,NW,311,0.0,2.0,86,0.00,,,0.00,186.000000,,2013-07-27 16:23:00,
2013-07-27 12:33:00,77.0,72.0,30.06,NW,311,0.0,2.0,86,0.00,,,0.00,186.000000,,2013-07-27 16:33:00,
2013-07-27 12:43:00,77.0,72.0,30.06,NW,311,0.0,2.0,86,0.00,,,0.00,186.000000,,2013-07-27 16:43:00,
2013-07-27 12:54:00,77.0,71.0,30.05,NW,304,0.0,3.0,82,0.00,,,0.00,411.000000,,2013-07-27 16:54:00,
2013-07-27 13:02:00,77.0,71.0,30.05,NW,304,0.0,3.0,82,0.00,,,0.00,411.000000,,2013-07-27 17:02:00,
2013-07-27 13:12:00,77.0,71.0,30.05,NW,304,0.0,3.0,82,0.00,,,0.00,411.000000,,2013-07-27 17:12:00,
2013-07-27 13:22:00,77.0,71.0,30.05,NW,304,0.0,3.0,82,0.00,,,0.00,411.000000,,2013-07-27 17:22:00,
2013-07-27 13:32:00,77.0,71.0,30.05,NW,304,0.0,3.0,82,0.00,,,0.00,411.000000,,2013-07-27 17:32:00,
2013-07-27 16:23:00,79.0,69.0,30.01,West,263,0.0,1.0,71,0.00,,,0.00,292.000000,,2013-07-27 20:23:00,
2013-07-27 16:33:00,79.0,69.0,30.01,West,263,0.0,1.0,71,0.00,,,0.00,292.000000,,2013-07-27 20:33:00,
2013-07-27 16:43:00,79.0,69.0,30.01,West,263,0.0,1.0,71,0.00,,,0.00,292.000000,,2013-07-27 20:43:00,
2013-07-27 16:52:00,79.0,68.0,30.00,West,263,0.0,3.0,70,0.00,,,0.00,279.000000,,2013-07-27 20:52:00,
2013-07-27 17:03:00,79.0,68.0,30.00,West,263,0.0,3.0,70,0.00,,,0.00,279.000000,,2013-07-27 21:03:00,
2013-07-27 17:12:00,79.0,68.0,30.00,West,263,0.0,3.0,70,0.00,,,0.00,279.000000,,2013-07-27 21:12:00,
2013-07-27 17:23:00,78.0,68.0,30.00,West,270,0.0,2.0,72,0.00,,,0.00,149.000000,,2013-07-27 21:23:00,
2013-07-27 17:33:00,78.0,68.0,30.00,West,270,0.0,2.0,72,0.00,,,0.00,149.000000,,2013-07-27 21:33:00,
2013-07-27 17:43:00,78.0,68.0,30.00,West,270,0.0,2.0,72,0.00,,,0.00,149.000000,,2013-07-27 21:43:00,
2013-07-27 17:53:00,78.0,69.0,30.00,West,270,0.0,1.0,75,0.00,,,0.00,183.000000,,2013-07-27 21:53:00,
2013-07-27 18:02:00,78.0,69.0,30.00,West,270,0.0,1.0,75,0.00,,,0.00,183.000000,,2013-07-27 22:02:00,
2013-07-27 18:12:00,78.0,69.0,30.00,West,270,0.0,1.0,75,0.00,,,0.00,183.000000,,2013-07-27 22:12:00,
2013-07-27 18:22:00,78.0,70.0,29.99,West,270,0.0,1.0,76,0.00,,,0.00,146.000000,,2013-07-27 22:22:00,
2013-07-27 18:33:00,78.0,70.0,29.99,West,270,0.0,1.0,76,0.00,,,0.00,146.000000,,2013-07-27 22:33:00,
2013-07-27 18:43:00,78.0,70.0,29.99,West,270,0.0,1.0,76,0.00,,,0.00,146.000000,,2013-07-27 22:43:00,
2013-07-27 18:53:00,78.0,68.0,29.99,West,270,0.0,3.0,72,0.00,,,0.00,130.000000,,2013-07-27 22:53:00,
2013-07-27 19:02:00,78.0,68.0,29.99,West,270,0.0,3.0,72,0.00,,,0.00,130.000000,,2013-07-27 23:02:00,
2013-07-27 19:12:00,78.0,68.0,29.99,West,270,0.0,3.0,72,0.00,,,0.00,130.000000,,2013-07-27 23:12:00,
2013-07-27 19:22:00,78.0,69.0,30.00,West,270,0.0,1.0,75,0.00,,,0.00,69.000000,,2013-07-27 23:22:00,
2013-07-27 19:32:00,78.0,69.0,30.00,West,270,0.0,1.0,75,0.00,,,0.00,69.000000,,2013-07-27 23:32:00,
2013-07-27 19:44:00,78.0,69.0,30.00,West,270,0.0,1.0,75,0.00,,,0.00,69.000000,,2013-07-27 23:44:00,
2013-07-27 19:53:00,78.0,68.0,30.00,West,267,1.0,5.0,71,0.00,,,0.00,42.000000,,2013-07-27 23:53:00,
2013-07-27 20:02:00,78.0,68.0,30.00,West,267,1.0,5.0,71,0.00,,,0.00,42.000000,,2013-07-28 00:02:00,
2013-07-27 20:12:00,78.0,68.0,30.00,West,267,1.0,5.0,71,0.00,,,0.00,42.000000,,2013-07-28 00:12:00,
2013-07-27 20:23:00,78.0,68.0,30.00,West,267,1.0,5.0,71,0.00,,,0.00,42.000000,,2013-07-28 00:23:00,
2013-07-27 20:32:00,78.0,68.0,30.00,West,267,1.0,5.0,71,0.00,,,0.00,42.000000,,2013-07-28 00:32:00,
2013-07-27 20:53:00,76.0,69.0,30.01,West,267,0.0,0.0,78,0.00,,,0.00,0.000000,,2013-07-28 00:53:00,
2013-07-27 21:02:00,76.0,69.0,30.01,West,267,0.0,0.0,78,0.00,,,0.00,0.000000,,2013-07-28 01:02:00,
2013-07-27 21:12:00,76.0,69.0,30.01,West,267,0.0,0.0,78,0.00,,,0.00,0.000000,,2013-07-28 01:12:00,
2013-07-27 21:23:00,74.0,68.0,30.01,West,267,0.0,0.0,83,0.00,,,0.00,0.000000,,2013-07-28 01:23:00,
2013-07-27 21:32:00,74.0,68.0,30.01,West,267,0.0,0.0,83,0.00,,,0.00,0.000000,,2013-07-28 01:32:00,
2013-07-27 21:43:00,74.0,68.0,30.01,West,267,0.0,0.0,83,0.00,,,0.00,0.000000,,2013-07-28 01:43:00,
2013-07-27 21:53:00,72.0,68.0,30.02,West,267,0.0,0.0,86,0.00,,,0.00,0.000000,,2013-07-28 01:53:00,
2013-07-27 22:03:00,72.0,68.0,30.02,West,267,0.0,0.0,86,0.00,,,0.00,0.000000,,2013-07-28 02:03:00,
2013-07-27 22:12:00,72.0,68.0,30.02,West,267,0.0,0.0,86,0.00,,,0.00,0.000000,,2013-07-28 02:12:00,
2013-07-27 22:22:00,71.0,68.0,30.03,West,267,0.0,0.0,89,0.00,,,0.00,0.000000,,2013-07-28 02:22:00,
2013-07-27 22:32:00,71.0,68.0,30.03,West,267,0.0,0.0,89,0.00,,,0.00,0.000000,,2013-07-28 02:32:00,
2013-07-27 22:42:00,71.0,68.0,30.03,West,267,0.0,0.0,89,0.00,,,0.00,0.000000,,2013-07-28 02:42:00,
2013-07-27 22:53:00,71.0,68.0,30.03,West,267,0.0,0.0,91,0.00,,,0.00,0.000000,,2013-07-28 02:53:00,
2013-07-27 23:03:00,71.0,68.0,30.03,West,267,0.0,0.0,91,0.00,,,0.00,0.000000,,2013-07-28 03:03:00,
2013-07-27 23:12:00,71.0,68.0,30.03,West,267,0.0,0.0,91,0.00,,,0.00,0.000000,,2013-07-28 03:12:00,
2013-07-27 23:22:00,71.0,69.0,30.03,West,267,0.0,0.0,93,0.00,,,0.00,0.000000,,2013-07-28 03:22:00,
2013-07-27 23:32:00,71.0,69.0,30.03,West,267,0.0,0.0,93,0.00,,,0.00,0.000000,,2013-07-28 03:32:00,
2013-07-27 23:42:00,71.0,69.0,30.03,West,267,0.0,0.0,93,0.00,,,0.00,0.000000,,2013-07-28 03:42:00,
2013-07-27 23:53:00,71.0,69.0,30.03,West,267,0.0,0.0,93,0.00,,,0.00,0.000000,,2013-07-28 03:53:00,